Terminal Aerodrome Forecast
Issued by NWS Shreveport, LA

Home | Current Version | Previous Version | Text Only | Print | Product List | Glossary On
Versions: 1 2 3 4 5 6 7 8 9 10 11 12 13 14 15 16 17
000
FTUS44 KSHV 180524
TAFGGG
TAF
KGGG 180524Z 1806/1906 VRB05KT P6SM FEW070 BKN250
     FM180900 18006KT P6SM BKN050 BKN180 BKN250
     FM181500 22009KT P6SM SCT050 BKN150 BKN250
     FM190000 17004KT P6SM SCT250=

USA.gov is the U.S. government's official web portal to all federal, state and local government web resources and services.